sensor_id;sensor_type;location;lat;lon;timestamp;pressure;altitude;pressure_sealevel;temperature;humidity
61359;BME280;47228;46.762;23.598;2023-01-30T00:01:55;97636.39;;;-2.68;67.59
61359;BME280;47228;46.762;23.598;2023-01-30T00:04:23;97635.52;;;-2.64;67.48
61359;BME280;47228;46.762;23.598;2023-01-30T00:06:51;97630.13;;;-2.61;67.13
61359;BME280;47228;46.762;23.598;2023-01-30T00:09:19;97629.77;;;-2.59;67.24
61359;BME280;47228;46.762;23.598;2023-01-30T00:11:47;97628.15;;;-2.55;67.21
61359;BME280;47228;46.762;23.598;2023-01-30T00:14:15;97624.12;;;-2.52;67.52
61359;BME280;47228;46.762;23.598;2023-01-30T00:16:43;97624.12;;;-2.50;67.11
61359;BME280;47228;46.762;23.598;2023-01-30T00:19:11;97626.19;;;-2.50;67.09
61359;BME280;47228;46.762;23.598;2023-01-30T00:21:39;97624.95;;;-2.50;67.12
61359;BME280;47228;46.762;23.598;2023-01-30T00:24:07;97624.04;;;-2.49;67.26
61359;BME280;47228;46.762;23.598;2023-01-30T00:26:35;97626.61;;;-2.49;67.25
61359;BME280;47228;46.762;23.598;2023-01-30T00:29:03;97630.85;;;-2.50;66.90
61359;BME280;47228;46.762;23.598;2023-01-30T00:31:31;97629.27;;;-2.52;66.96
61359;BME280;47228;46.762;23.598;2023-01-30T00:33:59;97627.29;;;-2.53;66.99
61359;BME280;47228;46.762;23.598;2023-01-30T00:36:27;97628.21;;;-2.54;67.07
61359;BME280;47228;46.762;23.598;2023-01-30T00:38:56;97630.10;;;-2.54;67.05
61359;BME280;47228;46.762;23.598;2023-01-30T00:41:24;97629.65;;;-2.55;67.28
61359;BME280;47228;46.762;23.598;2023-01-30T00:44:12;97629.54;;;-2.55;67.34
61359;BME280;47228;46.762;23.598;2023-01-30T00:46:59;97629.18;;;-2.55;67.21
61359;BME280;47228;46.762;23.598;2023-01-30T00:49:35;97630.23;;;-2.55;67.31
61359;BME280;47228;46.762;23.598;2023-01-30T00:52:03;97630.02;;;-2.55;67.39
61359;BME280;47228;46.762;23.598;2023-01-30T00:54:32;97625.11;;;-2.54;67.25
61359;BME280;47228;46.762;23.598;2023-01-30T00:57:00;97623.84;;;-2.53;67.37
61359;BME280;47228;46.762;23.598;2023-01-30T00:59:29;97623.28;;;-2.50;67.42
61359;BME280;47228;46.762;23.598;2023-01-30T01:01:57;97619.24;;;-2.47;67.23
61359;BME280;47228;46.762;23.598;2023-01-30T01:04:25;97620.05;;;-2.46;66.98
61359;BME280;47228;46.762;23.598;2023-01-30T01:06:53;97612.82;;;-2.45;67.07
61359;BME280;47228;46.762;23.598;2023-01-30T01:09:20;97606.86;;;-2.41;67.16
61359;BME280;47228;46.762;23.598;2023-01-30T01:11:48;97599.74;;;-2.39;66.98
61359;BME280;47228;46.762;23.598;2023-01-30T01:14:16;97591.30;;;-2.40;66.88
61359;BME280;47228;46.762;23.598;2023-01-30T01:16:44;97589.95;;;-2.40;66.87
61359;BME280;47228;46.762;23.598;2023-01-30T01:19:12;97585.36;;;-2.39;66.97
61359;BME280;47228;46.762;23.598;2023-01-30T01:21:40;97581.67;;;-2.41;66.80
61359;BME280;47228;46.762;23.598;2023-01-30T01:24:11;97580.57;;;-2.42;67.03
61359;BME280;47228;46.762;23.598;2023-01-30T01:26:40;97576.01;;;-2.42;67.17
61359;BME280;47228;46.762;23.598;2023-01-30T01:29:13;97572.74;;;-2.42;66.99
61359;BME280;47228;46.762;23.598;2023-01-30T01:31:42;97571.58;;;-2.43;67.30
61359;BME280;47228;46.762;23.598;2023-01-30T01:34:11;97564.55;;;-2.44;67.66
61359;BME280;47228;46.762;23.598;2023-01-30T01:36:39;97561.40;;;-2.46;67.22
61359;BME280;47228;46.762;23.598;2023-01-30T01:39:22;97561.19;;;-2.48;67.25
61359;BME280;47228;46.762;23.598;2023-01-30T01:41:50;97556.75;;;-2.49;67.09
61359;BME280;47228;46.762;23.598;2023-01-30T01:44:18;97550.44;;;-2.51;66.96
61359;BME280;47228;46.762;23.598;2023-01-30T01:46:56;97547.37;;;-2.51;66.99
61359;BME280;47228;46.762;23.598;2023-01-30T01:49:32;97542.23;;;-2.50;66.86
61359;BME280;47228;46.762;23.598;2023-01-30T01:52:04;97538.44;;;-2.48;66.85
61359;BME280;47228;46.762;23.598;2023-01-30T01:57:14;97532.96;;;-2.44;66.72
61359;BME280;47228;46.762;23.598;2023-01-30T02:00:09;97529.61;;;-2.43;66.82
61359;BME280;47228;46.762;23.598;2023-01-30T02:02:42;97529.31;;;-2.41;66.68
61359;BME280;47228;46.762;23.598;2023-01-30T02:05:14;97530.50;;;-2.41;66.63
61359;BME280;47228;46.762;23.598;2023-01-30T02:10:40;97526.83;;;-2.41;66.76
61359;BME280;47228;46.762;23.598;2023-01-30T02:13:10;97527.47;;;-2.40;66.93
61359;BME280;47228;46.762;23.598;2023-01-30T02:15:38;97527.75;;;-2.39;66.99
61359;BME280;47228;46.762;23.598;2023-01-30T02:18:06;97525.04;;;-2.40;66.60
61359;BME280;47228;46.762;23.598;2023-01-30T02:23:41;97527.70;;;-2.41;66.77
61359;BME280;47228;46.762;23.598;2023-01-30T02:26:57;97526.60;;;-2.42;67.19
61359;BME280;47228;46.762;23.598;2023-01-30T02:29:43;97527.46;;;-2.42;67.44
61359;BME280;47228;46.762;23.598;2023-01-30T02:35:23;97530.59;;;-2.42;67.35
61359;BME280;47228;46.762;23.598;2023-01-30T02:40:54;97528.15;;;-2.42;67.22
61359;BME280;47228;46.762;23.598;2023-01-30T02:43:43;97529.91;;;-2.40;67.35
61359;BME280;47228;46.762;23.598;2023-01-30T02:49:28;97525.83;;;-2.32;67.66
61359;BME280;47228;46.762;23.598;2023-01-30T02:51:59;97524.23;;;-2.27;68.00
61359;BME280;47228;46.762;23.598;2023-01-30T02:54:28;97520.17;;;-2.24;68.02
61359;BME280;47228;46.762;23.598;2023-01-30T02:56:57;97515.90;;;-2.20;67.71
61359;BME280;47228;46.762;23.598;2023-01-30T02:59:30;97518.08;;;-2.16;67.48
61359;BME280;47228;46.762;23.598;2023-01-30T03:02:22;97514.50;;;-2.15;67.51
61359;BME280;47228;46.762;23.598;2023-01-30T03:13:43;97499.35;;;-2.10;67.29
61359;BME280;47228;46.762;23.598;2023-01-30T03:16:18;97494.48;;;-2.10;66.98
61359;BME280;47228;46.762;23.598;2023-01-30T03:18:48;97487.95;;;-2.11;66.93
61359;BME280;47228;46.762;23.598;2023-01-30T03:21:16;97477.09;;;-2.11;66.96
61359;BME280;47228;46.762;23.598;2023-01-30T03:23:45;97469.48;;;-2.12;66.86
61359;BME280;47228;46.762;23.598;2023-01-30T03:26:17;97466.36;;;-2.12;66.75
61359;BME280;47228;46.762;23.598;2023-01-30T03:28:48;97462.77;;;-2.15;66.52
61359;BME280;47228;46.762;23.598;2023-01-30T03:31:17;97463.67;;;-2.20;66.36
61359;BME280;47228;46.762;23.598;2023-01-30T03:33:45;97459.20;;;-2.23;66.64
61359;BME280;47228;46.762;23.598;2023-01-30T03:36:13;97459.64;;;-2.24;66.95
61359;BME280;47228;46.762;23.598;2023-01-30T03:38:41;97464.24;;;-2.25;66.63
61359;BME280;47228;46.762;23.598;2023-01-30T03:41:09;97463.63;;;-2.28;66.55
61359;BME280;47228;46.762;23.598;2023-01-30T03:43:37;97461.25;;;-2.31;66.67
61359;BME280;47228;46.762;23.598;2023-01-30T03:46:05;97462.26;;;-2.33;66.89
61359;BME280;47228;46.762;23.598;2023-01-30T03:48:33;97459.25;;;-2.32;67.04
61359;BME280;47228;46.762;23.598;2023-01-30T03:51:01;97458.85;;;-2.29;67.03
61359;BME280;47228;46.762;23.598;2023-01-30T03:53:29;97453.96;;;-2.27;67.06
61359;BME280;47228;46.762;23.598;2023-01-30T03:55:57;97453.77;;;-2.22;66.93
61359;BME280;47228;46.762;23.598;2023-01-30T03:58:25;97456.31;;;-2.16;66.83
61359;BME280;47228;46.762;23.598;2023-01-30T04:00:55;97455.52;;;-2.13;66.71
61359;BME280;47228;46.762;23.598;2023-01-30T04:03:24;97451.98;;;-2.12;66.49
61359;BME280;47228;46.762;23.598;2023-01-30T04:05:51;97446.62;;;-2.10;66.67
61359;BME280;47228;46.762;23.598;2023-01-30T04:08:19;97445.56;;;-2.08;66.84
61359;BME280;47228;46.762;23.598;2023-01-30T04:10:47;97439.96;;;-2.05;66.79
61359;BME280;47228;46.762;23.598;2023-01-30T04:13:15;97433.69;;;-2.02;66.72
61359;BME280;47228;46.762;23.598;2023-01-30T04:15:44;97432.73;;;-2.01;66.61
61359;BME280;47228;46.762;23.598;2023-01-30T04:18:12;97430.93;;;-2.00;66.61
61359;BME280;47228;46.762;23.598;2023-01-30T04:20:39;97427.95;;;-2.02;66.16
61359;BME280;47228;46.762;23.598;2023-01-30T04:23:07;97424.98;;;-2.04;66.23
61359;BME280;47228;46.762;23.598;2023-01-30T04:25:35;97425.89;;;-2.05;66.30
61359;BME280;47228;46.762;23.598;2023-01-30T04:28:03;97426.27;;;-2.05;66.58
61359;BME280;47228;46.762;23.598;2023-01-30T04:30:31;97427.15;;;-2.05;66.77
61359;BME280;47228;46.762;23.598;2023-01-30T04:33:00;97426.13;;;-2.05;66.56
61359;BME280;47228;46.762;23.598;2023-01-30T04:35:28;97425.94;;;-2.05;66.49
61359;BME280;47228;46.762;23.598;2023-01-30T04:37:56;97425.60;;;-2.05;66.77
61359;BME280;47228;46.762;23.598;2023-01-30T04:40:24;97422.63;;;-2.07;66.51
61359;BME280;47228;46.762;23.598;2023-01-30T04:42:52;97420.64;;;-2.09;66.51
61359;BME280;47228;46.762;23.598;2023-01-30T04:45:20;97422.08;;;-2.09;66.76
61359;BME280;47228;46.762;23.598;2023-01-30T04:47:48;97420.98;;;-2.11;66.64
61359;BME280;47228;46.762;23.598;2023-01-30T04:50:16;97415.91;;;-2.10;66.83
61359;BME280;47228;46.762;23.598;2023-01-30T04:52:44;97415.73;;;-2.10;66.65
61359;BME280;47228;46.762;23.598;2023-01-30T04:55:12;97416.98;;;-2.11;66.32
61359;BME280;47228;46.762;23.598;2023-01-30T04:57:40;97416.14;;;-2.11;66.43
61359;BME280;47228;46.762;23.598;2023-01-30T05:00:09;97418.80;;;-2.12;66.35
61359;BME280;47228;46.762;23.598;2023-01-30T05:02:37;97416.83;;;-2.13;66.63
61359;BME280;47228;46.762;23.598;2023-01-30T05:05:05;97410.50;;;-2.14;66.58
61359;BME280;47228;46.762;23.598;2023-01-30T05:07:33;97408.25;;;-2.14;66.47
61359;BME280;47228;46.762;23.598;2023-01-30T05:10:03;97407.95;;;-2.15;66.15
61359;BME280;47228;46.762;23.598;2023-01-30T05:12:31;97406.69;;;-2.15;65.95
61359;BME280;47228;46.762;23.598;2023-01-30T05:14:59;97404.51;;;-2.13;65.87
61359;BME280;47228;46.762;23.598;2023-01-30T05:17:27;97404.83;;;-2.13;66.13
61359;BME280;47228;46.762;23.598;2023-01-30T05:19:55;97401.81;;;-2.12;66.40
61359;BME280;47228;46.762;23.598;2023-01-30T05:22:23;97396.86;;;-2.11;66.40
61359;BME280;47228;46.762;23.598;2023-01-30T05:24:51;97392.23;;;-2.09;66.53
61359;BME280;47228;46.762;23.598;2023-01-30T05:27:19;97382.46;;;-2.11;67.02
61359;BME280;47228;46.762;23.598;2023-01-30T05:29:46;97381.92;;;-2.13;66.92
61359;BME280;47228;46.762;23.598;2023-01-30T05:32:16;97382.89;;;-2.12;66.71
61359;BME280;47228;46.762;23.598;2023-01-30T05:34:44;97379.61;;;-2.08;67.00
61359;BME280;47228;46.762;23.598;2023-01-30T05:37:12;97378.86;;;-2.03;67.24
61359;BME280;47228;46.762;23.598;2023-01-30T05:39:40;97376.95;;;-1.98;67.45
61359;BME280;47228;46.762;23.598;2023-01-30T05:42:09;97374.22;;;-1.94;67.61
61359;BME280;47228;46.762;23.598;2023-01-30T05:44:36;97366.78;;;-1.92;67.30
61359;BME280;47228;46.762;23.598;2023-01-30T05:47:04;97365.06;;;-1.90;67.60
61359;BME280;47228;46.762;23.598;2023-01-30T05:49:32;97369.39;;;-1.88;67.81
61359;BME280;47228;46.762;23.598;2023-01-30T05:52:00;97366.88;;;-1.87;67.94
61359;BME280;47228;46.762;23.598;2023-01-30T05:54:28;97363.80;;;-1.88;67.97
61359;BME280;47228;46.762;23.598;2023-01-30T05:56:56;97363.15;;;-1.88;68.06
61359;BME280;47228;46.762;23.598;2023-01-30T05:59:24;97364.61;;;-1.87;68.10
61359;BME280;47228;46.762;23.598;2023-01-30T06:01:52;97360.73;;;-1.86;67.92
61359;BME280;47228;46.762;23.598;2023-01-30T06:04:20;97360.37;;;-1.86;68.08
61359;BME280;47228;46.762;23.598;2023-01-30T06:06:48;97362.62;;;-1.86;68.20
61359;BME280;47228;46.762;23.598;2023-01-30T06:09:17;97368.35;;;-1.86;68.07
61359;BME280;47228;46.762;23.598;2023-01-30T06:11:45;97367.27;;;-1.85;68.03
61359;BME280;47228;46.762;23.598;2023-01-30T06:14:13;97364.17;;;-1.86;67.88
61359;BME280;47228;46.762;23.598;2023-01-30T06:16:41;97360.30;;;-1.85;67.93
61359;BME280;47228;46.762;23.598;2023-01-30T06:19:09;97360.36;;;-1.86;68.14
61359;BME280;47228;46.762;23.598;2023-01-30T06:21:37;97357.98;;;-1.89;67.67
61359;BME280;47228;46.762;23.598;2023-01-30T06:24:05;97356.95;;;-1.91;67.43
61359;BME280;47228;46.762;23.598;2023-01-30T06:26:33;97351.83;;;-1.92;67.29
61359;BME280;47228;46.762;23.598;2023-01-30T06:29:01;97346.27;;;-1.92;67.33
61359;BME280;47228;46.762;23.598;2023-01-30T06:31:29;97349.85;;;-1.91;67.56
61359;BME280;47228;46.762;23.598;2023-01-30T06:33:57;97347.63;;;-1.91;67.09
61359;BME280;47228;46.762;23.598;2023-01-30T06:36:25;97343.14;;;-1.92;66.99
61359;BME280;47228;46.762;23.598;2023-01-30T06:38:53;97343.32;;;-1.92;66.35
61359;BME280;47228;46.762;23.598;2023-01-30T06:41:21;97344.02;;;-1.94;66.21
61359;BME280;47228;46.762;23.598;2023-01-30T06:43:49;97348.39;;;-1.97;65.66
61359;BME280;47228;46.762;23.598;2023-01-30T06:46:17;97357.05;;;-1.99;65.84
61359;BME280;47228;46.762;23.598;2023-01-30T06:48:45;97362.83;;;-2.00;65.93
61359;BME280;47228;46.762;23.598;2023-01-30T06:51:13;97363.20;;;-1.98;66.02
61359;BME280;47228;46.762;23.598;2023-01-30T06:53:41;97360.73;;;-1.97;65.89
61359;BME280;47228;46.762;23.598;2023-01-30T06:56:09;97355.90;;;-1.97;65.47
61359;BME280;47228;46.762;23.598;2023-01-30T06:58:37;97358.36;;;-1.96;65.42
61359;BME280;47228;46.762;23.598;2023-01-30T07:01:05;97357.90;;;-1.92;65.55
61359;BME280;47228;46.762;23.598;2023-01-30T07:03:33;97355.55;;;-1.89;65.48
61359;BME280;47228;46.762;23.598;2023-01-30T07:06:01;97353.05;;;-1.86;65.15
61359;BME280;47228;46.762;23.598;2023-01-30T07:08:29;97355.44;;;-1.83;65.05
61359;BME280;47228;46.762;23.598;2023-01-30T07:10:57;97350.14;;;-1.80;64.65
61359;BME280;47228;46.762;23.598;2023-01-30T07:13:26;97349.65;;;-1.78;64.72
61359;BME280;47228;46.762;23.598;2023-01-30T07:15:54;97349.86;;;-1.78;64.51
61359;BME280;47228;46.762;23.598;2023-01-30T07:18:21;97347.48;;;-1.79;64.74
61359;BME280;47228;46.762;23.598;2023-01-30T07:20:49;97348.13;;;-1.78;64.78
61359;BME280;47228;46.762;23.598;2023-01-30T07:23:17;97347.50;;;-1.77;64.48
61359;BME280;47228;46.762;23.598;2023-01-30T07:25:45;97341.80;;;-1.75;64.82
61359;BME280;47228;46.762;23.598;2023-01-30T07:28:13;97343.27;;;-1.72;65.00
61359;BME280;47228;46.762;23.598;2023-01-30T07:30:41;97347.11;;;-1.68;64.74
61359;BME280;47228;46.762;23.598;2023-01-30T07:33:09;97353.52;;;-1.63;64.70
61359;BME280;47228;46.762;23.598;2023-01-30T07:35:37;97355.33;;;-1.60;64.63
61359;BME280;47228;46.762;23.598;2023-01-30T07:38:05;97354.80;;;-1.58;64.73
61359;BME280;47228;46.762;23.598;2023-01-30T07:40:33;97356.70;;;-1.56;64.36
61359;BME280;47228;46.762;23.598;2023-01-30T07:43:07;97356.03;;;-1.54;64.25
61359;BME280;47228;46.762;23.598;2023-01-30T07:45:41;97353.73;;;-1.53;64.20
61359;BME280;47228;46.762;23.598;2023-01-30T07:48:11;97347.31;;;-1.53;64.10
61359;BME280;47228;46.762;23.598;2023-01-30T07:50:40;97341.87;;;-1.52;64.07
61359;BME280;47228;46.762;23.598;2023-01-30T07:53:10;97339.30;;;-1.52;63.43
61359;BME280;47228;46.762;23.598;2023-01-30T07:55:39;97336.48;;;-1.52;63.37
61359;BME280;47228;46.762;23.598;2023-01-30T07:58:12;97328.69;;;-1.51;63.58
61359;BME280;47228;46.762;23.598;2023-01-30T08:00:41;97330.04;;;-1.48;63.63
61359;BME280;47228;46.762;23.598;2023-01-30T08:03:13;97329.44;;;-1.45;63.69
61359;BME280;47228;46.762;23.598;2023-01-30T08:05:41;97327.27;;;-1.41;63.79
61359;BME280;47228;46.762;23.598;2023-01-30T08:08:11;97328.29;;;-1.39;63.19
61359;BME280;47228;46.762;23.598;2023-01-30T08:10:39;97327.08;;;-1.39;62.77
61359;BME280;47228;46.762;23.598;2023-01-30T08:13:07;97322.85;;;-1.39;62.89
61359;BME280;47228;46.762;23.598;2023-01-30T08:15:35;97320.98;;;-1.37;62.93
61359;BME280;47228;46.762;23.598;2023-01-30T08:18:03;97315.84;;;-1.38;62.74
61359;BME280;47228;46.762;23.598;2023-01-30T08:20:33;97316.29;;;-1.37;62.79
61359;BME280;47228;46.762;23.598;2023-01-30T08:23:02;97317.21;;;-1.33;62.95
61359;BME280;47228;46.762;23.598;2023-01-30T08:25:29;97310.58;;;-1.31;62.90
61359;BME280;47228;46.762;23.598;2023-01-30T08:27:58;97311.36;;;-1.30;63.03
61359;BME280;47228;46.762;23.598;2023-01-30T08:30:28;97309.52;;;-1.26;63.05
61359;BME280;47228;46.762;23.598;2023-01-30T08:32:57;97305.49;;;-1.24;63.15
61359;BME280;47228;46.762;23.598;2023-01-30T08:35:25;97299.99;;;-1.21;63.29
61359;BME280;47228;46.762;23.598;2023-01-30T08:37:54;97295.42;;;-1.18;62.92
61359;BME280;47228;46.762;23.598;2023-01-30T08:40:22;97293.65;;;-1.18;62.90
61359;BME280;47228;46.762;23.598;2023-01-30T08:42:50;97291.02;;;-1.15;63.36
61359;BME280;47228;46.762;23.598;2023-01-30T08:45:17;97284.09;;;-1.11;63.35
61359;BME280;47228;46.762;23.598;2023-01-30T08:47:46;97277.39;;;-1.08;63.26
61359;BME280;47228;46.762;23.598;2023-01-30T08:50:14;97273.70;;;-1.06;63.33
61359;BME280;47228;46.762;23.598;2023-01-30T08:52:42;97270.42;;;-1.06;62.99
61359;BME280;47228;46.762;23.598;2023-01-30T08:55:10;97271.55;;;-1.07;62.76
61359;BME280;47228;46.762;23.598;2023-01-30T08:57:38;97274.84;;;-1.05;62.87
61359;BME280;47228;46.762;23.598;2023-01-30T09:00:07;97274.11;;;-1.02;62.96
61359;BME280;47228;46.762;23.598;2023-01-30T09:02:37;97268.92;;;-0.99;63.60
61359;BME280;47228;46.762;23.598;2023-01-30T09:05:06;97268.17;;;-0.96;63.80
61359;BME280;47228;46.762;23.598;2023-01-30T09:07:34;97258.80;;;-0.92;63.97
61359;BME280;47228;46.762;23.598;2023-01-30T09:10:02;97255.11;;;-0.89;63.50
61359;BME280;47228;46.762;23.598;2023-01-30T09:12:30;97253.89;;;-0.87;63.21
61359;BME280;47228;46.762;23.598;2023-01-30T09:14:58;97247.43;;;-0.85;63.27
61359;BME280;47228;46.762;23.598;2023-01-30T09:17:27;97238.34;;;-0.82;63.10
61359;BME280;47228;46.762;23.598;2023-01-30T09:19:55;97228.58;;;-0.82;62.52
61359;BME280;47228;46.762;23.598;2023-01-30T09:22:23;97229.77;;;-0.80;62.92
61359;BME280;47228;46.762;23.598;2023-01-30T09:24:52;97226.13;;;-0.74;62.77
61359;BME280;47228;46.762;23.598;2023-01-30T09:27:20;97220.30;;;-0.71;62.21
61359;BME280;47228;46.762;23.598;2023-01-30T09:29:48;97216.36;;;-0.67;62.49
61359;BME280;47228;46.762;23.598;2023-01-30T09:32:16;97216.77;;;-0.60;62.80
61359;BME280;47228;46.762;23.598;2023-01-30T09:34:44;97207.70;;;-0.52;62.24
61359;BME280;47228;46.762;23.598;2023-01-30T09:37:12;97200.77;;;-0.42;62.05
61359;BME280;47228;46.762;23.598;2023-01-30T09:39:40;97191.59;;;-0.33;61.49
61359;BME280;47228;46.762;23.598;2023-01-30T09:48:00;97171.63;;;-0.16;60.11
61359;BME280;47228;46.762;23.598;2023-01-30T09:50:56;97169.08;;;-0.17;60.28
61359;BME280;47228;46.762;23.598;2023-01-30T09:56:18;97157.48;;;-0.19;59.75
61359;BME280;47228;46.762;23.598;2023-01-30T09:58:51;97153.50;;;-0.19;59.56
61359;BME280;47228;46.762;23.598;2023-01-30T10:01:43;97146.39;;;-0.19;59.35
61359;BME280;47228;46.762;23.598;2023-01-30T10:04:32;97140.77;;;-0.25;59.22
61359;BME280;47228;46.762;23.598;2023-01-30T10:15:42;97126.96;;;-0.30;60.00
61359;BME280;47228;46.762;23.598;2023-01-30T10:18:40;97124.33;;;-0.28;60.31
61359;BME280;47228;46.762;23.598;2023-01-30T10:21:45;97124.73;;;-0.27;60.29
61359;BME280;47228;46.762;23.598;2023-01-30T10:26:55;97118.04;;;-0.24;60.25
61359;BME280;47228;46.762;23.598;2023-01-30T10:29:36;97120.31;;;-0.24;60.14
61359;BME280;47228;46.762;23.598;2023-01-30T10:32:12;97118.58;;;-0.24;59.91
61359;BME280;47228;46.762;23.598;2023-01-30T10:34:46;97117.27;;;-0.25;59.65
61359;BME280;47228;46.762;23.598;2023-01-30T10:51:55;97090.40;;;-0.22;59.67
61359;BME280;47228;46.762;23.598;2023-01-30T11:04:59;97042.85;;;-0.14;60.06
61359;BME280;47228;46.762;23.598;2023-01-30T11:07:30;97036.11;;;-0.13;60.18
61359;BME280;47228;46.762;23.598;2023-01-30T11:09:59;97028.64;;;-0.09;59.80
61359;BME280;47228;46.762;23.598;2023-01-30T11:12:27;97020.55;;;-0.06;59.93
61359;BME280;47228;46.762;23.598;2023-01-30T11:14:58;97015.13;;;-0.06;59.53
61359;BME280;47228;46.762;23.598;2023-01-30T11:17:38;97010.65;;;-0.06;59.79
61359;BME280;47228;46.762;23.598;2023-01-30T11:20:17;97002.70;;;-0.05;60.17
61359;BME280;47228;46.762;23.598;2023-01-30T11:22:48;96996.25;;;0.01;60.18
61359;BME280;47228;46.762;23.598;2023-01-30T11:25:19;96981.27;;;0.06;60.03
61359;BME280;47228;46.762;23.598;2023-01-30T11:28:04;96972.70;;;0.14;60.09
61359;BME280;47228;46.762;23.598;2023-01-30T11:30:34;96970.33;;;0.23;59.98
61359;BME280;47228;46.762;23.598;2023-01-30T11:33:15;96969.23;;;0.25;59.09
61359;BME280;47228;46.762;23.598;2023-01-30T11:35:56;96964.31;;;0.24;59.09
61359;BME280;47228;46.762;23.598;2023-01-30T11:38:32;96959.96;;;0.25;59.85
61359;BME280;47228;46.762;23.598;2023-01-30T11:41:21;96954.22;;;0.29;59.98
61359;BME280;47228;46.762;23.598;2023-01-30T11:43:49;96953.04;;;0.32;60.19
61359;BME280;47228;46.762;23.598;2023-01-30T11:46:38;96949.11;;;0.37;60.42
61359;BME280;47228;46.762;23.598;2023-01-30T11:49:13;96944.07;;;0.41;60.83
61359;BME280;47228;46.762;23.598;2023-01-30T11:52:03;96939.60;;;0.45;60.89
61359;BME280;47228;46.762;23.598;2023-01-30T11:54:42;96937.90;;;0.47;60.50
61359;BME280;47228;46.762;23.598;2023-01-30T11:57:16;96934.91;;;0.49;60.53
61359;BME280;47228;46.762;23.598;2023-01-30T11:59:53;96928.03;;;0.52;60.85
61359;BME280;47228;46.762;23.598;2023-01-30T12:02:32;96921.15;;;0.53;60.82
61359;BME280;47228;46.762;23.598;2023-01-30T12:05:05;96914.02;;;0.56;60.87
61359;BME280;47228;46.762;23.598;2023-01-30T12:07:36;96904.61;;;0.59;60.86
61359;BME280;47228;46.762;23.598;2023-01-30T12:12:56;96895.65;;;0.66;60.88
61359;BME280;47228;46.762;23.598;2023-01-30T12:15:27;96889.20;;;0.69;60.93
61359;BME280;47228;46.762;23.598;2023-01-30T12:18:25;96887.45;;;0.73;60.88
61359;BME280;47228;46.762;23.598;2023-01-30T12:21:00;96884.48;;;0.78;60.66
61359;BME280;47228;46.762;23.598;2023-01-30T12:26:31;96869.87;;;0.82;59.78
61359;BME280;47228;46.762;23.598;2023-01-30T12:31:54;96856.90;;;0.82;60.51
61359;BME280;47228;46.762;23.598;2023-01-30T12:34:25;96854.66;;;0.85;60.31
61359;BME280;47228;46.762;23.598;2023-01-30T12:45:19;96845.66;;;0.81;60.47
61359;BME280;47228;46.762;23.598;2023-01-30T13:11:40;96851.83;;;0.67;60.86
61359;BME280;47228;46.762;23.598;2023-01-30T13:17:39;96852.73;;;0.59;60.88
61359;BME280;47228;46.762;23.598;2023-01-30T13:28:24;96836.38;;;0.57;60.96
61359;BME280;47228;46.762;23.598;2023-01-30T13:30:54;96833.20;;;0.56;61.21
61359;BME280;47228;46.762;23.598;2023-01-30T13:33:31;96836.23;;;0.55;61.31
61359;BME280;47228;46.762;23.598;2023-01-30T13:38:28;96830.90;;;0.59;61.56
61359;BME280;47228;46.762;23.598;2023-01-30T13:40:59;96831.85;;;0.55;61.02
61359;BME280;47228;46.762;23.598;2023-01-30T13:43:45;96827.77;;;0.51;61.38
61359;BME280;47228;46.762;23.598;2023-01-30T13:46:21;96826.64;;;0.48;61.47
61359;BME280;47228;46.762;23.598;2023-01-30T13:51:49;96833.66;;;0.38;61.37
61359;BME280;47228;46.762;23.598;2023-01-30T13:57:13;96816.27;;;0.33;61.95
61359;BME280;47228;46.762;23.598;2023-01-30T14:02:24;96803.07;;;0.31;62.27
61359;BME280;47228;46.762;23.598;2023-01-30T14:04:57;96795.38;;;0.28;62.04
61359;BME280;47228;46.762;23.598;2023-01-30T14:07:40;96792.30;;;0.23;62.23
61359;BME280;47228;46.762;23.598;2023-01-30T14:12:51;96786.96;;;0.13;62.74
61359;BME280;47228;46.762;23.598;2023-01-30T14:15:24;96788.33;;;0.14;63.09
61359;BME280;47228;46.762;23.598;2023-01-30T14:20:28;96789.38;;;0.17;62.89
61359;BME280;47228;46.762;23.598;2023-01-30T14:23:04;96789.06;;;0.17;62.82
61359;BME280;47228;46.762;23.598;2023-01-30T14:25:42;96791.91;;;0.15;62.75
61359;BME280;47228;46.762;23.598;2023-01-30T14:38:41;96794.51;;;-0.10;63.19
61359;BME280;47228;46.762;23.598;2023-01-30T14:41:24;96794.50;;;-0.14;63.41
61359;BME280;47228;46.762;23.598;2023-01-30T14:43:52;96787.36;;;-0.18;63.34
61359;BME280;47228;46.762;23.598;2023-01-30T14:48:55;96785.02;;;-0.21;63.71
61359;BME280;47228;46.762;23.598;2023-01-30T14:51:44;96783.86;;;-0.23;63.95
61359;BME280;47228;46.762;23.598;2023-01-30T14:56:55;96786.67;;;-0.27;63.75
61359;BME280;47228;46.762;23.598;2023-01-30T14:59:37;96786.55;;;-0.27;63.87
61359;BME280;47228;46.762;23.598;2023-01-30T15:10:15;96780.98;;;-0.26;64.06
61359;BME280;47228;46.762;23.598;2023-01-30T15:16:01;96772.35;;;-0.24;64.45
61359;BME280;47228;46.762;23.598;2023-01-30T15:21:38;96783.97;;;-0.24;64.55
61359;BME280;47228;46.762;23.598;2023-01-30T15:32:17;96784.44;;;-0.36;64.78
61359;BME280;47228;46.762;23.598;2023-01-30T15:42:47;96785.44;;;-0.56;65.17
61359;BME280;47228;46.762;23.598;2023-01-30T15:51:01;96784.77;;;-0.58;66.29
61359;BME280;47228;46.762;23.598;2023-01-30T15:53:35;96785.55;;;-0.56;66.27
61359;BME280;47228;46.762;23.598;2023-01-30T15:56:08;96788.02;;;-0.50;66.31
61359;BME280;47228;46.762;23.598;2023-01-30T15:58:39;96782.90;;;-0.46;66.25
61359;BME280;47228;46.762;23.598;2023-01-30T16:01:11;96780.33;;;-0.43;66.22
61359;BME280;47228;46.762;23.598;2023-01-30T16:03:43;96784.70;;;-0.41;66.20
61359;BME280;47228;46.762;23.598;2023-01-30T16:06:29;96789.57;;;-0.39;66.24
61359;BME280;47228;46.762;23.598;2023-01-30T16:09:04;96784.73;;;-0.38;66.19
61359;BME280;47228;46.762;23.598;2023-01-30T16:11:36;96786.96;;;-0.37;66.55
61359;BME280;47228;46.762;23.598;2023-01-30T16:14:07;96782.73;;;-0.38;66.73
61359;BME280;47228;46.762;23.598;2023-01-30T16:16:41;96783.73;;;-0.40;66.72
61359;BME280;47228;46.762;23.598;2023-01-30T16:19:27;96780.11;;;-0.42;66.65
61359;BME280;47228;46.762;23.598;2023-01-30T16:21:59;96778.58;;;-0.44;66.68
61359;BME280;47228;46.762;23.598;2023-01-30T16:24:30;96779.28;;;-0.46;66.65